SPJL/JUL METAR and TAF weather

Enter ICAO airport designator
Station Type Date Time Source
SPJL METAR 2019/06/17 01:00 UTC NOAA

SPJL 170100Z 16005KT 9999 -RA SCT020 BKN080 07/02 Q1038 RMK PPTRZ


Station Type Date Time Source
SPJL Decoded METAR 2019/06/17 01:00 UTC NOAA

Juliaca, Peru (SPJL) 15-29S 070-09W 3827M
Jun 16, 2019 - 09:00 PM EDT / 2019.06.17 0100 UTC
Wind: from the SSE (160 degrees) at 6 MPH (5 KT):0
Visibility: greater than 7 mile(s):0
Sky conditions: mostly cloudy
Weather: light rain
Temperature: 44 F (7 C)
Dew Point: 35 F (2 C)
Relative Humidity: 70%
Pressure (altimeter): 30.65 in. Hg (1038 hPa)
ob: SPJL 170100Z 16005KT 9999 -RA SCT020 BKN080 07/02 Q1038 RMK PPTRZ
cycle: 1

Station Type Date Time Source
SPJL TAF 2019/06/16 18:33 UTC NOAA

TAF SPJL 161700Z 1618/1718 19008KT 9999 BKN015 BKN080 TX18/1619Z TNM03/1710Z
FM160030 220006KT 9999 SCT015 SCT080
FM171100 VRB05KT 9999 SCT020

Example: see airport list